sensor_id;sensor_type;location;lat;lon;timestamp;temperature;humidity
27559;DHT22;15002;52.028;5.670;2023-03-04T00:01:14;9.30;99.90
27559;DHT22;15002;52.028;5.670;2023-03-04T00:03:40;9.00;99.90
27559;DHT22;15002;52.028;5.670;2023-03-04T00:06:06;8.80;99.90
27559;DHT22;15002;52.028;5.670;2023-03-04T00:08:33;8.90;99.90
27559;DHT22;15002;52.028;5.670;2023-03-04T00:10:59;8.70;99.90
27559;DHT22;15002;52.028;5.670;2023-03-04T00:13:24;8.70;99.90
27559;DHT22;15002;52.028;5.670;2023-03-04T00:15:50;8.80;99.90
27559;DHT22;15002;52.028;5.670;2023-03-04T00:18:17;8.80;99.90
27559;DHT22;15002;52.028;5.670;2023-03-04T00:20:45;8.90;99.90
27559;DHT22;15002;52.028;5.670;2023-03-04T00:23:11;8.90;99.90
27559;DHT22;15002;52.028;5.670;2023-03-04T00:25:36;9.00;99.90
27559;DHT22;15002;52.028;5.670;2023-03-04T00:28:02;9.00;99.90
27559;DHT22;15002;52.028;5.670;2023-03-04T00:30:28;8.80;99.90
27559;DHT22;15002;52.028;5.670;2023-03-04T00:32:53;8.80;99.90
27559;DHT22;15002;52.028;5.670;2023-03-04T00:35:19;8.70;99.90
27559;DHT22;15002;52.028;5.670;2023-03-04T00:37:45;9.00;99.90
27559;DHT22;15002;52.028;5.670;2023-03-04T00:40:11;9.00;99.90
27559;DHT22;15002;52.028;5.670;2023-03-04T00:42:36;9.10;99.90
27559;DHT22;15002;52.028;5.670;2023-03-04T00:45:03;9.10;99.90
27559;DHT22;15002;52.028;5.670;2023-03-04T00:47:29;9.00;99.90
27559;DHT22;15002;52.028;5.670;2023-03-04T00:49:54;9.00;99.90
27559;DHT22;15002;52.028;5.670;2023-03-04T00:52:20;9.00;99.90
27559;DHT22;15002;52.028;5.670;2023-03-04T00:54:45;9.00;99.90
27559;DHT22;15002;52.028;5.670;2023-03-04T00:57:11;8.90;99.90
27559;DHT22;15002;52.028;5.670;2023-03-04T00:59:36;9.10;99.90
27559;DHT22;15002;52.028;5.670;2023-03-04T01:02:02;9.10;99.90
27559;DHT22;15002;52.028;5.670;2023-03-04T01:04:28;9.20;99.90
27559;DHT22;15002;52.028;5.670;2023-03-04T01:06:54;9.10;99.90
27559;DHT22;15002;52.028;5.670;2023-03-04T01:09:19;9.20;99.90
27559;DHT22;15002;52.028;5.670;2023-03-04T01:11:45;9.10;99.90
27559;DHT22;15002;52.028;5.670;2023-03-04T01:14:10;8.90;99.90
27559;DHT22;15002;52.028;5.670;2023-03-04T01:16:36;9.00;99.90
27559;DHT22;15002;52.028;5.670;2023-03-04T01:19:02;9.10;99.90
27559;DHT22;15002;52.028;5.670;2023-03-04T01:21:27;9.00;99.90
27559;DHT22;15002;52.028;5.670;2023-03-04T01:23:53;8.80;99.90
27559;DHT22;15002;52.028;5.670;2023-03-04T01:26:19;8.60;99.90
27559;DHT22;15002;52.028;5.670;2023-03-04T01:28:44;8.80;99.90
27559;DHT22;15002;52.028;5.670;2023-03-04T01:31:10;8.80;99.90
27559;DHT22;15002;52.028;5.670;2023-03-04T01:33:35;8.90;99.90
27559;DHT22;15002;52.028;5.670;2023-03-04T01:36:01;8.70;99.90
27559;DHT22;15002;52.028;5.670;2023-03-04T01:38:27;8.90;99.90
27559;DHT22;15002;52.028;5.670;2023-03-04T01:40:52;8.80;99.90
27559;DHT22;15002;52.028;5.670;2023-03-04T01:43:22;8.70;99.90
27559;DHT22;15002;52.028;5.670;2023-03-04T01:45:50;8.80;99.90
27559;DHT22;15002;52.028;5.670;2023-03-04T01:48:19;8.90;99.90
27559;DHT22;15002;52.028;5.670;2023-03-04T01:50:46;8.80;99.90
27559;DHT22;15002;52.028;5.670;2023-03-04T01:53:26;8.50;99.90
27559;DHT22;15002;52.028;5.670;2023-03-04T01:56:13;8.60;99.90
27559;DHT22;15002;52.028;5.670;2023-03-04T01:58:39;8.70;99.90
27559;DHT22;15002;52.028;5.670;2023-03-04T02:01:05;8.70;99.90
27559;DHT22;15002;52.028;5.670;2023-03-04T02:03:30;8.90;99.90
27559;DHT22;15002;52.028;5.670;2023-03-04T02:05:56;8.90;99.90
27559;DHT22;15002;52.028;5.670;2023-03-04T02:08:23;9.00;99.90
27559;DHT22;15002;52.028;5.670;2023-03-04T02:10:50;9.20;99.90
27559;DHT22;15002;52.028;5.670;2023-03-04T02:13:16;9.20;99.90
27559;DHT22;15002;52.028;5.670;2023-03-04T02:15:43;9.10;99.90
27559;DHT22;15002;52.028;5.670;2023-03-04T02:18:21;8.90;99.90
27559;DHT22;15002;52.028;5.670;2023-03-04T02:21:17;8.90;99.90
27559;DHT22;15002;52.028;5.670;2023-03-04T02:26:30;8.80;99.90
27559;DHT22;15002;52.028;5.670;2023-03-04T02:28:58;8.80;99.90
27559;DHT22;15002;52.028;5.670;2023-03-04T02:31:32;8.90;99.90
27559;DHT22;15002;52.028;5.670;2023-03-04T02:34:01;9.00;99.90
27559;DHT22;15002;52.028;5.670;2023-03-04T02:36:28;8.90;99.90
27559;DHT22;15002;52.028;5.670;2023-03-04T02:38:55;9.00;99.90
27559;DHT22;15002;52.028;5.670;2023-03-04T02:41:25;9.00;99.90
27559;DHT22;15002;52.028;5.670;2023-03-04T02:43:54;9.10;99.90
27559;DHT22;15002;52.028;5.670;2023-03-04T02:46:21;8.90;99.90
27559;DHT22;15002;52.028;5.670;2023-03-04T02:48:47;8.90;99.90
27559;DHT22;15002;52.028;5.670;2023-03-04T02:51:13;8.80;99.90
27559;DHT22;15002;52.028;5.670;2023-03-04T02:53:38;8.90;99.90
27559;DHT22;15002;52.028;5.670;2023-03-04T02:56:04;8.90;99.90
27559;DHT22;15002;52.028;5.670;2023-03-04T02:58:30;9.00;99.90
27559;DHT22;15002;52.028;5.670;2023-03-04T03:00:56;9.00;99.90
27559;DHT22;15002;52.028;5.670;2023-03-04T03:03:22;9.20;99.90
27559;DHT22;15002;52.028;5.670;2023-03-04T03:05:48;9.20;99.90
27559;DHT22;15002;52.028;5.670;2023-03-04T03:08:13;9.20;99.90
27559;DHT22;15002;52.028;5.670;2023-03-04T03:10:39;9.10;99.90
27559;DHT22;15002;52.028;5.670;2023-03-04T03:13:05;9.10;99.90
27559;DHT22;15002;52.028;5.670;2023-03-04T03:15:30;9.00;99.90
27559;DHT22;15002;52.028;5.670;2023-03-04T03:17:56;9.00;99.90
27559;DHT22;15002;52.028;5.670;2023-03-04T03:20:22;9.00;99.90
27559;DHT22;15002;52.028;5.670;2023-03-04T03:22:48;9.00;99.90
27559;DHT22;15002;52.028;5.670;2023-03-04T03:25:15;9.00;99.90
27559;DHT22;15002;52.028;5.670;2023-03-04T03:27:41;9.00;99.90
27559;DHT22;15002;52.028;5.670;2023-03-04T03:30:10;9.00;99.90
27559;DHT22;15002;52.028;5.670;2023-03-04T03:32:36;8.90;99.90
27559;DHT22;15002;52.028;5.670;2023-03-04T03:35:02;9.10;99.90
27559;DHT22;15002;52.028;5.670;2023-03-04T03:37:28;9.00;99.90
27559;DHT22;15002;52.028;5.670;2023-03-04T03:39:53;8.90;99.90
27559;DHT22;15002;52.028;5.670;2023-03-04T03:42:19;9.10;99.90
27559;DHT22;15002;52.028;5.670;2023-03-04T03:44:44;8.90;99.90
27559;DHT22;15002;52.028;5.670;2023-03-04T03:47:10;9.00;99.90
27559;DHT22;15002;52.028;5.670;2023-03-04T03:49:36;8.90;99.90
27559;DHT22;15002;52.028;5.670;2023-03-04T03:52:02;8.90;99.90
27559;DHT22;15002;52.028;5.670;2023-03-04T03:54:28;8.80;99.90
27559;DHT22;15002;52.028;5.670;2023-03-04T03:56:53;8.90;99.90
27559;DHT22;15002;52.028;5.670;2023-03-04T03:59:19;8.80;99.90
27559;DHT22;15002;52.028;5.670;2023-03-04T04:01:45;8.90;99.90
27559;DHT22;15002;52.028;5.670;2023-03-04T04:04:10;9.10;99.90
27559;DHT22;15002;52.028;5.670;2023-03-04T04:06:36;9.00;99.90
27559;DHT22;15002;52.028;5.670;2023-03-04T04:09:02;8.90;99.90
27559;DHT22;15002;52.028;5.670;2023-03-04T04:11:27;8.90;99.90
27559;DHT22;15002;52.028;5.670;2023-03-04T04:13:53;8.80;99.90
27559;DHT22;15002;52.028;5.670;2023-03-04T04:16:19;8.60;99.90
27559;DHT22;15002;52.028;5.670;2023-03-04T04:18:44;8.70;99.90
27559;DHT22;15002;52.028;5.670;2023-03-04T04:21:10;8.80;99.90
27559;DHT22;15002;52.028;5.670;2023-03-04T04:23:36;8.80;99.90
27559;DHT22;15002;52.028;5.670;2023-03-04T04:26:01;8.80;99.90
27559;DHT22;15002;52.028;5.670;2023-03-04T04:28:27;9.00;99.90
27559;DHT22;15002;52.028;5.670;2023-03-04T04:30:53;8.90;99.90
27559;DHT22;15002;52.028;5.670;2023-03-04T04:33:18;8.90;99.90
27559;DHT22;15002;52.028;5.670;2023-03-04T04:35:44;8.90;99.90
27559;DHT22;15002;52.028;5.670;2023-03-04T04:38:10;8.90;99.90
27559;DHT22;15002;52.028;5.670;2023-03-04T04:40:36;9.00;99.90
27559;DHT22;15002;52.028;5.670;2023-03-04T04:43:02;8.80;99.90
27559;DHT22;15002;52.028;5.670;2023-03-04T04:45:27;8.80;99.90
27559;DHT22;15002;52.028;5.670;2023-03-04T04:47:54;8.90;99.90
27559;DHT22;15002;52.028;5.670;2023-03-04T04:50:25;8.70;99.90
27559;DHT22;15002;52.028;5.670;2023-03-04T04:52:51;8.70;99.90
27559;DHT22;15002;52.028;5.670;2023-03-04T04:55:17;8.70;99.90
27559;DHT22;15002;52.028;5.670;2023-03-04T04:57:42;8.80;99.90
27559;DHT22;15002;52.028;5.670;2023-03-04T05:00:09;8.90;99.90
27559;DHT22;15002;52.028;5.670;2023-03-04T05:02:35;8.80;99.90
27559;DHT22;15002;52.028;5.670;2023-03-04T05:05:05;8.80;99.90
27559;DHT22;15002;52.028;5.670;2023-03-04T05:07:31;8.70;99.90
27559;DHT22;15002;52.028;5.670;2023-03-04T05:09:57;8.70;99.90
27559;DHT22;15002;52.028;5.670;2023-03-04T05:12:23;8.70;99.90
27559;DHT22;15002;52.028;5.670;2023-03-04T05:14:49;8.80;99.90
27559;DHT22;15002;52.028;5.670;2023-03-04T05:17:14;8.90;99.90
27559;DHT22;15002;52.028;5.670;2023-03-04T05:19:40;8.80;99.90
27559;DHT22;15002;52.028;5.670;2023-03-04T05:22:06;8.80;99.90
27559;DHT22;15002;52.028;5.670;2023-03-04T05:24:31;8.80;99.90
27559;DHT22;15002;52.028;5.670;2023-03-04T05:26:59;8.90;99.90
27559;DHT22;15002;52.028;5.670;2023-03-04T05:29:25;8.80;99.90
27559;DHT22;15002;52.028;5.670;2023-03-04T05:31:51;8.80;99.90
27559;DHT22;15002;52.028;5.670;2023-03-04T05:34:16;9.00;99.90
27559;DHT22;15002;52.028;5.670;2023-03-04T05:36:42;9.10;99.90
27559;DHT22;15002;52.028;5.670;2023-03-04T05:39:08;8.80;99.90
27559;DHT22;15002;52.028;5.670;2023-03-04T05:41:34;8.90;99.90
27559;DHT22;15002;52.028;5.670;2023-03-04T05:44:00;8.70;99.90
27559;DHT22;15002;52.028;5.670;2023-03-04T05:46:25;8.70;99.90
27559;DHT22;15002;52.028;5.670;2023-03-04T05:48:52;8.70;99.90
27559;DHT22;15002;52.028;5.670;2023-03-04T05:51:18;8.60;99.90
27559;DHT22;15002;52.028;5.670;2023-03-04T05:53:44;8.70;99.90
27559;DHT22;15002;52.028;5.670;2023-03-04T05:56:16;8.70;99.90
27559;DHT22;15002;52.028;5.670;2023-03-04T05:58:42;8.80;99.90
27559;DHT22;15002;52.028;5.670;2023-03-04T06:01:09;8.70;99.90
27559;DHT22;15002;52.028;5.670;2023-03-04T06:03:35;8.80;99.90
27559;DHT22;15002;52.028;5.670;2023-03-04T06:06:01;8.80;99.90
27559;DHT22;15002;52.028;5.670;2023-03-04T06:08:26;8.90;99.90
27559;DHT22;15002;52.028;5.670;2023-03-04T06:10:54;8.80;99.90
27559;DHT22;15002;52.028;5.670;2023-03-04T06:13:20;8.90;99.90
27559;DHT22;15002;52.028;5.670;2023-03-04T06:15:46;8.80;99.90
27559;DHT22;15002;52.028;5.670;2023-03-04T06:18:12;8.80;99.90
27559;DHT22;15002;52.028;5.670;2023-03-04T06:20:37;8.90;99.90
27559;DHT22;15002;52.028;5.670;2023-03-04T06:23:03;8.80;99.90
27559;DHT22;15002;52.028;5.670;2023-03-04T06:25:29;8.80;99.90
27559;DHT22;15002;52.028;5.670;2023-03-04T06:27:55;8.70;99.90
27559;DHT22;15002;52.028;5.670;2023-03-04T06:30:21;8.70;99.90
27559;DHT22;15002;52.028;5.670;2023-03-04T06:32:47;8.80;99.90
27559;DHT22;15002;52.028;5.670;2023-03-04T06:35:14;8.80;99.90
27559;DHT22;15002;52.028;5.670;2023-03-04T06:37:40;8.80;99.90
27559;DHT22;15002;52.028;5.670;2023-03-04T06:40:07;8.70;99.90
27559;DHT22;15002;52.028;5.670;2023-03-04T06:42:33;8.70;99.90
27559;DHT22;15002;52.028;5.670;2023-03-04T06:44:59;8.70;99.90
27559;DHT22;15002;52.028;5.670;2023-03-04T06:47:26;8.80;99.90
27559;DHT22;15002;52.028;5.670;2023-03-04T06:49:52;8.80;99.90
27559;DHT22;15002;52.028;5.670;2023-03-04T06:52:18;8.80;99.90
27559;DHT22;15002;52.028;5.670;2023-03-04T06:54:44;8.80;99.90
27559;DHT22;15002;52.028;5.670;2023-03-04T06:57:09;8.80;99.90
27559;DHT22;15002;52.028;5.670;2023-03-04T06:59:35;8.80;99.90
27559;DHT22;15002;52.028;5.670;2023-03-04T07:02:01;8.90;99.90
27559;DHT22;15002;52.028;5.670;2023-03-04T07:04:26;8.80;99.90
27559;DHT22;15002;52.028;5.670;2023-03-04T07:06:52;8.90;99.90
27559;DHT22;15002;52.028;5.670;2023-03-04T07:09:17;8.90;99.90
27559;DHT22;15002;52.028;5.670;2023-03-04T07:11:43;9.00;99.90
27559;DHT22;15002;52.028;5.670;2023-03-04T07:14:09;9.00;99.90
27559;DHT22;15002;52.028;5.670;2023-03-04T07:16:35;9.00;99.90
27559;DHT22;15002;52.028;5.670;2023-03-04T07:19:01;9.00;99.90
27559;DHT22;15002;52.028;5.670;2023-03-04T07:21:27;9.10;99.90
27559;DHT22;15002;52.028;5.670;2023-03-04T07:23:53;9.00;99.90
27559;DHT22;15002;52.028;5.670;2023-03-04T07:26:19;9.00;99.90
27559;DHT22;15002;52.028;5.670;2023-03-04T07:28:44;9.10;99.90
27559;DHT22;15002;52.028;5.670;2023-03-04T07:31:12;9.00;99.90
27559;DHT22;15002;52.028;5.670;2023-03-04T07:33:42;8.90;99.90
27559;DHT22;15002;52.028;5.670;2023-03-04T07:36:08;9.00;99.90
27559;DHT22;15002;52.028;5.670;2023-03-04T07:38:33;9.00;99.90
27559;DHT22;15002;52.028;5.670;2023-03-04T07:40:59;9.30;99.90
27559;DHT22;15002;52.028;5.670;2023-03-04T07:43:25;9.30;99.90
27559;DHT22;15002;52.028;5.670;2023-03-04T07:45:51;9.50;99.90
27559;DHT22;15002;52.028;5.670;2023-03-04T07:48:16;9.50;99.90
27559;DHT22;15002;52.028;5.670;2023-03-04T07:50:42;9.60;99.90
27559;DHT22;15002;52.028;5.670;2023-03-04T07:53:08;9.60;99.90
27559;DHT22;15002;52.028;5.670;2023-03-04T07:55:33;9.70;99.90
27559;DHT22;15002;52.028;5.670;2023-03-04T07:57:59;9.80;99.90
27559;DHT22;15002;52.028;5.670;2023-03-04T08:00:25;9.80;99.90
27559;DHT22;15002;52.028;5.670;2023-03-04T08:02:50;9.80;99.90
27559;DHT22;15002;52.028;5.670;2023-03-04T08:05:16;9.80;99.90
27559;DHT22;15002;52.028;5.670;2023-03-04T08:07:42;9.80;99.90
27559;DHT22;15002;52.028;5.670;2023-03-04T08:10:08;9.90;99.90
27559;DHT22;15002;52.028;5.670;2023-03-04T08:12:34;9.80;99.90
27559;DHT22;15002;52.028;5.670;2023-03-04T08:15:01;9.90;99.90
27559;DHT22;15002;52.028;5.670;2023-03-04T08:17:27;9.90;99.90
27559;DHT22;15002;52.028;5.670;2023-03-04T08:19:54;10.00;99.90
27559;DHT22;15002;52.028;5.670;2023-03-04T08:22:20;10.10;99.90
27559;DHT22;15002;52.028;5.670;2023-03-04T08:24:45;10.10;99.90
27559;DHT22;15002;52.028;5.670;2023-03-04T08:27:11;10.10;99.90
27559;DHT22;15002;52.028;5.670;2023-03-04T08:29:37;10.20;99.90
27559;DHT22;15002;52.028;5.670;2023-03-04T08:32:02;10.30;99.90
27559;DHT22;15002;52.028;5.670;2023-03-04T08:34:28;10.40;99.90
27559;DHT22;15002;52.028;5.670;2023-03-04T08:36:54;10.50;99.90
27559;DHT22;15002;52.028;5.670;2023-03-04T08:39:20;10.50;99.90
27559;DHT22;15002;52.028;5.670;2023-03-04T08:41:46;10.60;99.90
27559;DHT22;15002;52.028;5.670;2023-03-04T08:44:13;10.70;99.90
27559;DHT22;15002;52.028;5.670;2023-03-04T08:46:40;10.80;99.90
27559;DHT22;15002;52.028;5.670;2023-03-04T08:49:07;10.80;99.90
27559;DHT22;15002;52.028;5.670;2023-03-04T08:51:33;10.70;99.90
27559;DHT22;15002;52.028;5.670;2023-03-04T08:54:01;10.80;99.90
27559;DHT22;15002;52.028;5.670;2023-03-04T08:56:26;10.70;99.90
27559;DHT22;15002;52.028;5.670;2023-03-04T08:58:52;10.70;99.90
27559;DHT22;15002;52.028;5.670;2023-03-04T09:01:18;10.60;99.90
27559;DHT22;15002;52.028;5.670;2023-03-04T09:03:44;10.50;99.90
27559;DHT22;15002;52.028;5.670;2023-03-04T09:06:13;10.50;99.90
27559;DHT22;15002;52.028;5.670;2023-03-04T09:08:38;10.40;99.90
27559;DHT22;15002;52.028;5.670;2023-03-04T09:11:04;10.60;99.90
27559;DHT22;15002;52.028;5.670;2023-03-04T09:13:30;10.70;99.90
27559;DHT22;15002;52.028;5.670;2023-03-04T09:15:57;10.60;99.90
27559;DHT22;15002;52.028;5.670;2023-03-04T09:18:23;10.80;99.90
27559;DHT22;15002;52.028;5.670;2023-03-04T09:20:49;10.60;99.90
27559;DHT22;15002;52.028;5.670;2023-03-04T09:23:16;10.50;99.90
27559;DHT22;15002;52.028;5.670;2023-03-04T09:25:42;10.50;99.90
27559;DHT22;15002;52.028;5.670;2023-03-04T09:28:09;10.40;99.90
27559;DHT22;15002;52.028;5.670;2023-03-04T09:30:36;10.30;99.90
27559;DHT22;15002;52.028;5.670;2023-03-04T09:33:01;10.30;99.90
27559;DHT22;15002;52.028;5.670;2023-03-04T09:35:27;10.30;99.90
27559;DHT22;15002;52.028;5.670;2023-03-04T09:37:55;10.20;99.90
27559;DHT22;15002;52.028;5.670;2023-03-04T09:40:36;10.20;99.90
27559;DHT22;15002;52.028;5.670;2023-03-04T09:43:04;10.30;99.90
27559;DHT22;15002;52.028;5.670;2023-03-04T09:45:55;10.30;99.90
27559;DHT22;15002;52.028;5.670;2023-03-04T09:48:23;10.50;99.90
27559;DHT22;15002;52.028;5.670;2023-03-04T09:51:13;10.20;99.90
27559;DHT22;15002;52.028;5.670;2023-03-04T09:56:12;10.10;99.90
27559;DHT22;15002;52.028;5.670;2023-03-04T09:59:06;10.10;99.90
27559;DHT22;15002;52.028;5.670;2023-03-04T10:01:39;10.20;99.90
27559;DHT22;15002;52.028;5.670;2023-03-04T10:04:11;10.30;99.90
27559;DHT22;15002;52.028;5.670;2023-03-04T10:06:39;10.50;99.90
27559;DHT22;15002;52.028;5.670;2023-03-04T10:09:23;10.60;99.90
27559;DHT22;15002;52.028;5.670;2023-03-04T10:12:14;10.70;99.90
27559;DHT22;15002;52.028;5.670;2023-03-04T10:14:54;10.90;99.90
27559;DHT22;15002;52.028;5.670;2023-03-04T10:17:32;10.90;99.90
27559;DHT22;15002;52.028;5.670;2023-03-04T10:23:07;10.90;99.90
27559;DHT22;15002;52.028;5.670;2023-03-04T10:25:34;10.90;99.90
27559;DHT22;15002;52.028;5.670;2023-03-04T10:28:17;10.80;99.90
27559;DHT22;15002;52.028;5.670;2023-03-04T10:33:31;10.90;99.90
27559;DHT22;15002;52.028;5.670;2023-03-04T10:38:34;10.60;99.90
27559;DHT22;15002;52.028;5.670;2023-03-04T10:41:01;10.80;99.90
27559;DHT22;15002;52.028;5.670;2023-03-04T10:43:35;10.80;99.90
27559;DHT22;15002;52.028;5.670;2023-03-04T10:46:01;10.80;99.90
27559;DHT22;15002;52.028;5.670;2023-03-04T10:48:30;11.00;99.90
27559;DHT22;15002;52.028;5.670;2023-03-04T10:51:21;11.10;99.90
27559;DHT22;15002;52.028;5.670;2023-03-04T10:53:51;11.00;99.90
27559;DHT22;15002;52.028;5.670;2023-03-04T10:56:38;11.00;99.90
27559;DHT22;15002;52.028;5.670;2023-03-04T11:02:13;11.10;99.90
27559;DHT22;15002;52.028;5.670;2023-03-04T11:04:40;11.20;99.90
27559;DHT22;15002;52.028;5.670;2023-03-04T11:07:09;11.10;99.90
27559;DHT22;15002;52.028;5.670;2023-03-04T11:09:35;11.10;99.90
27559;DHT22;15002;52.028;5.670;2023-03-04T11:12:07;11.10;99.90
27559;DHT22;15002;52.028;5.670;2023-03-04T11:14:54;11.30;99.90
27559;DHT22;15002;52.028;5.670;2023-03-04T11:17:23;11.30;99.90
27559;DHT22;15002;52.028;5.670;2023-03-04T11:22:45;11.20;99.90
27559;DHT22;15002;52.028;5.670;2023-03-04T11:25:41;11.10;99.90
27559;DHT22;15002;52.028;5.670;2023-03-04T11:28:18;11.30;99.90
27559;DHT22;15002;52.028;5.670;2023-03-04T11:30:58;11.30;99.90
27559;DHT22;15002;52.028;5.670;2023-03-04T11:36:31;11.50;99.90
27559;DHT22;15002;52.028;5.670;2023-03-04T11:38:59;11.60;99.90
27559;DHT22;15002;52.028;5.670;2023-03-04T11:41:42;11.50;99.90
27559;DHT22;15002;52.028;5.670;2023-03-04T11:44:11;11.50;99.90
27559;DHT22;15002;52.028;5.670;2023-03-04T11:47:04;11.30;99.90
27559;DHT22;15002;52.028;5.670;2023-03-04T11:49:54;11.10;99.90
27559;DHT22;15002;52.028;5.670;2023-03-04T11:56:07;10.90;99.90
27559;DHT22;15002;52.028;5.670;2023-03-04T11:58:54;11.10;99.90
27559;DHT22;15002;52.028;5.670;2023-03-04T12:01:35;11.10;99.90
27559;DHT22;15002;52.028;5.670;2023-03-04T12:04:33;11.20;99.90
27559;DHT22;15002;52.028;5.670;2023-03-04T12:07:28;11.00;99.90
27559;DHT22;15002;52.028;5.670;2023-03-04T12:19:01;11.60;99.90
27559;DHT22;15002;52.028;5.670;2023-03-04T12:24:13;11.70;99.90
27559;DHT22;15002;52.028;5.670;2023-03-04T12:26:48;11.80;99.90
27559;DHT22;15002;52.028;5.670;2023-03-04T12:30:46;11.80;99.90
27559;DHT22;15002;52.028;5.670;2023-03-04T12:32:46;11.90;99.90
27559;DHT22;15002;52.028;5.670;2023-03-04T12:35:37;12.10;99.90
27559;DHT22;15002;52.028;5.670;2023-03-04T12:44:05;11.10;99.90
27559;DHT22;15002;52.028;5.670;2023-03-04T12:57:24;11.00;99.90
27559;DHT22;15002;52.028;5.670;2023-03-04T13:00:05;11.10;99.90
27559;DHT22;15002;52.028;5.670;2023-03-04T13:10:23;11.20;99.90
27559;DHT22;15002;52.028;5.670;2023-03-04T13:12:55;11.30;99.90
27559;DHT22;15002;52.028;5.670;2023-03-04T13:17:52;11.10;99.90
27559;DHT22;15002;52.028;5.670;2023-03-04T13:43:55;11.30;99.90
27559;DHT22;15002;52.028;5.670;2023-03-04T13:51:36;11.20;99.90
27559;DHT22;15002;52.028;5.670;2023-03-04T13:54:06;11.10;99.90
27559;DHT22;15002;52.028;5.670;2023-03-04T14:01:50;11.00;99.90
27559;DHT22;15002;52.028;5.670;2023-03-04T14:04:22;10.90;99.90
27559;DHT22;15002;52.028;5.670;2023-03-04T14:06:52;10.60;99.90
27559;DHT22;15002;52.028;5.670;2023-03-04T14:11:47;10.50;99.90
27559;DHT22;15002;52.028;5.670;2023-03-04T14:14:17;10.50;99.90
27559;DHT22;15002;52.028;5.670;2023-03-04T14:17:02;10.50;99.90
27559;DHT22;15002;52.028;5.670;2023-03-04T14:19:30;10.50;99.90
27559;DHT22;15002;52.028;5.670;2023-03-04T14:21:58;10.70;99.90
27559;DHT22;15002;52.028;5.670;2023-03-04T14:24:25;10.60;99.90
27559;DHT22;15002;52.028;5.670;2023-03-04T14:27:05;10.60;99.90
27559;DHT22;15002;52.028;5.670;2023-03-04T14:29:34;10.70;99.90
27559;DHT22;15002;52.028;5.670;2023-03-04T14:32:00;10.80;99.90
27559;DHT22;15002;52.028;5.670;2023-03-04T14:34:35;10.90;99.90
27559;DHT22;15002;52.028;5.670;2023-03-04T14:37:14;10.80;99.90
27559;DHT22;15002;52.028;5.670;2023-03-04T14:39:43;10.90;99.90
27559;DHT22;15002;52.028;5.670;2023-03-04T14:42:11;10.70;99.90
27559;DHT22;15002;52.028;5.670;2023-03-04T14:44:47;10.30;99.90
27559;DHT22;15002;52.028;5.670;2023-03-04T14:47:23;10.40;99.90
27559;DHT22;15002;52.028;5.670;2023-03-04T14:49:53;10.60;99.90
27559;DHT22;15002;52.028;5.670;2023-03-04T14:52:38;10.60;99.90
27559;DHT22;15002;52.028;5.670;2023-03-04T14:57:40;10.70;99.90
27559;DHT22;15002;52.028;5.670;2023-03-04T15:02:49;10.80;99.90
27559;DHT22;15002;52.028;5.670;2023-03-04T15:05:25;11.00;99.90
27559;DHT22;15002;52.028;5.670;2023-03-04T15:10:28;11.30;99.80
27559;DHT22;15002;52.028;5.670;2023-03-04T15:12:57;11.10;99.80
27559;DHT22;15002;52.028;5.670;2023-03-04T15:20:41;11.00;99.90
27559;DHT22;15002;52.028;5.670;2023-03-04T15:23:16;11.00;99.70
27559;DHT22;15002;52.028;5.670;2023-03-04T15:25:42;10.90;99.90
27559;DHT22;15002;52.028;5.670;2023-03-04T15:28:16;10.90;99.90
27559;DHT22;15002;52.028;5.670;2023-03-04T15:30:42;11.00;99.90
27559;DHT22;15002;52.028;5.670;2023-03-04T15:33:11;10.70;99.90
27559;DHT22;15002;52.028;5.670;2023-03-04T15:35:37;10.50;99.90
27559;DHT22;15002;52.028;5.670;2023-03-04T15:38:06;10.50;99.90
27559;DHT22;15002;52.028;5.670;2023-03-04T15:40:35;10.80;99.90
27559;DHT22;15002;52.028;5.670;2023-03-04T15:43:06;10.60;99.90
27559;DHT22;15002;52.028;5.670;2023-03-04T15:45:34;10.40;99.90
27559;DHT22;15002;52.028;5.670;2023-03-04T15:48:02;10.40;99.90
27559;DHT22;15002;52.028;5.670;2023-03-04T15:50:36;10.30;99.90
27559;DHT22;15002;52.028;5.670;2023-03-04T15:53:05;10.40;99.90
27559;DHT22;15002;52.028;5.670;2023-03-04T15:55:31;10.60;99.90
27559;DHT22;15002;52.028;5.670;2023-03-04T15:57:58;10.40;99.90
27559;DHT22;15002;52.028;5.670;2023-03-04T16:00:25;10.30;99.90
27559;DHT22;15002;52.028;5.670;2023-03-04T16:02:59;10.30;99.90
27559;DHT22;15002;52.028;5.670;2023-03-04T16:05:25;10.40;99.90
27559;DHT22;15002;52.028;5.670;2023-03-04T16:07:51;10.30;99.90
27559;DHT22;15002;52.028;5.670;2023-03-04T16:10:21;10.40;99.90
27559;DHT22;15002;52.028;5.670;2023-03-04T16:12:49;10.40;99.90
27559;DHT22;15002;52.028;5.670;2023-03-04T16:15:17;10.40;99.90
27559;DHT22;15002;52.028;5.670;2023-03-04T16:17:44;10.30;99.90
27559;DHT22;15002;52.028;5.670;2023-03-04T16:20:13;10.60;99.90
27559;DHT22;15002;52.028;5.670;2023-03-04T16:22:40;10.50;99.90
27559;DHT22;15002;52.028;5.670;2023-03-04T16:25:10;10.30;99.90
27559;DHT22;15002;52.028;5.670;2023-03-04T16:27:36;10.40;99.90
27559;DHT22;15002;52.028;5.670;2023-03-04T16:30:03;10.10;99.90
27559;DHT22;15002;52.028;5.670;2023-03-04T16:32:29;10.30;99.90
27559;DHT22;15002;52.028;5.670;2023-03-04T16:34:54;10.30;99.90
27559;DHT22;15002;52.028;5.670;2023-03-04T16:37:20;10.20;99.90
27559;DHT22;15002;52.028;5.670;2023-03-04T16:39:46;10.00;99.90
27559;DHT22;15002;52.028;5.670;2023-03-04T16:42:18;10.00;99.90
27559;DHT22;15002;52.028;5.670;2023-03-04T16:44:47;9.90;99.90
27559;DHT22;15002;52.028;5.670;2023-03-04T16:47:13;9.90;99.90
27559;DHT22;15002;52.028;5.670;2023-03-04T16:49:38;10.00;99.90
27559;DHT22;15002;52.028;5.670;2023-03-04T16:52:06;10.00;99.90
27559;DHT22;15002;52.028;5.670;2023-03-04T16:54:34;10.10;99.90
27559;DHT22;15002;52.028;5.670;2023-03-04T16:57:01;9.90;99.90
27559;DHT22;15002;52.028;5.670;2023-03-04T16:59:27;9.90;99.90
27559;DHT22;15002;52.028;5.670;2023-03-04T17:01:53;9.90;99.90
27559;DHT22;15002;52.028;5.670;2023-03-04T17:04:20;10.00;99.90
27559;DHT22;15002;52.028;5.670;2023-03-04T17:06:45;10.00;99.90
27559;DHT22;15002;52.028;5.670;2023-03-04T17:09:11;9.90;99.90
27559;DHT22;15002;52.028;5.670;2023-03-04T17:11:37;9.80;99.90
27559;DHT22;15002;52.028;5.670;2023-03-04T17:14:03;9.90;99.90
27559;DHT22;15002;52.028;5.670;2023-03-04T17:16:28;9.70;99.90
27559;DHT22;15002;52.028;5.670;2023-03-04T17:18:54;9.70;99.90
27559;DHT22;15002;52.028;5.670;2023-03-04T17:21:25;9.90;99.90
27559;DHT22;15002;52.028;5.670;2023-03-04T17:23:52;9.80;99.90
27559;DHT22;15002;52.028;5.670;2023-03-04T17:26:18;9.70;99.90
27559;DHT22;15002;52.028;5.670;2023-03-04T17:28:46;9.50;99.90
27559;DHT22;15002;52.028;5.670;2023-03-04T17:31:15;9.70;99.90
27559;DHT22;15002;52.028;5.670;2023-03-04T17:33:41;10.00;99.90
27559;DHT22;15002;52.028;5.670;2023-03-04T17:36:10;9.80;99.90
27559;DHT22;15002;52.028;5.670;2023-03-04T17:38:36;9.70;99.90
27559;DHT22;15002;52.028;5.670;2023-03-04T17:41:06;9.70;99.90
27559;DHT22;15002;52.028;5.670;2023-03-04T17:43:32;9.60;99.90